Time;durP1;ratioP1;P1;durP2;ratioP2;P2;SDS_P1;SDS_P2;PMS_P1;PMS_P2;Temp;Humidity;BMP_temperature;BMP_pressure;BME280_temperature;BME280_humidity;BME280_pressure;Samples;Min_cycle;Max_cycle;Signal;HPM_P1;HPM_P2
2021/10/05 00:00:07;;;;;;;;;;;;;;;;;;2114798;28;47990;-72
2021/10/05 00:01:09;;;;;;;;;;;;;;;;;;2114804;27;45393;-72
2021/10/05 00:02:10;;;;;;;;;;;;;;;;;;2114873;28;46771;-70
2021/10/05 00:03:12;;;;;;;;;;;;;;;;;;2105539;28;45580;-70
2021/10/05 00:04:13;;;;;;;;;;;;;;;;;;2105805;28;45233;-71
2021/10/05 00:05:15;;;;;;;;;;;;;;;;;;2105182;28;44466;-71
2021/10/05 00:06:16;;;;;;;;;;;;;;;;;;2105464;28;46951;-72
2021/10/05 00:07:18;;;;;;;;;;;;;;;;;;2113936;27;46240;-71
2021/10/05 00:08:19;;;;;;;;;;;;;;;;;;2121432;27;45680;-70
2021/10/05 00:09:21;;;;;;;;;;;;;;;;;;2122097;27;46028;-70
2021/10/05 00:10:22;;;;;;;;;;;;;;;;;;2122070;27;45856;-71
2021/10/05 00:11:24;;;;;;;;;;;;;;;;;;2113823;28;46093;-71
2021/10/05 00:12:25;;;;;;;;;;;;;;;;;;2114045;27;44891;-73
2021/10/05 00:13:26;;;;;;;;;;;;;;;;;;2122276;27;47230;-72
2021/10/05 00:14:28;;;;;;;;;;;;;;;;;;2113741;28;46027;-72
2021/10/05 00:15:29;;;;;;;;;;;;;;;;;;2105517;28;44330;-72
2021/10/05 00:16:31;;;;;;;;;;;;;;;;;;2113677;27;46879;-72
2021/10/05 00:17:32;;;;;;;;;;;;;;;;;;2121790;27;45876;-72
2021/10/05 00:18:35;;;;;;;;;;;;;;;;;;2113643;28;45915;-71
2021/10/05 00:19:37;;;;;;;;;;;;;;;;;;2113733;28;46137;-72
2021/10/05 00:20:38;;;;;;;;;;;;;;;;;;2113653;28;48501;-72
2021/10/05 00:21:39;;;;;;;;;;;;;;;;;;2113935;28;43840;-72
2021/10/05 00:22:41;;;;;;;;;;;;;;;;;;2113637;28;46211;-72
2021/10/05 00:23:43;;;;;;;;;;;;;;;;;;2105163;28;45894;-72
2021/10/05 00:24:44;;;;;;;;;;;;;;;;;;2105104;28;47158;-72
2021/10/05 00:25:45;;;;;;;;;;;;;;;;;;2105009;28;46047;-71
2021/10/05 00:26:47;;;;;;;;;;;;;;;;;;2105551;28;45861;-72
2021/10/05 00:27:48;;;;;;;;;;;;;;;;;;2104700;28;43657;-70
2021/10/05 00:28:49;;;;;;;;;;;;;;;;;;2105823;28;45132;-71
2021/10/05 00:29:51;;;;;;;;;;;;;;;;;;2105747;28;45459;-71
2021/10/05 00:30:52;;;;;;;;;;;;;;;;;;2113591;28;45287;-71
2021/10/05 00:31:54;;;;;;;;;;;;;;;;;;2105174;28;45196;-71
2021/10/05 00:32:55;;;;;;;;;;;;;;;;;;2105286;28;46380;-71
2021/10/05 00:33:57;;;;;;;;;;;;;;;;;;2105361;28;45246;-71
2021/10/05 00:34:59;;;;;;;;;;;;;;;;;;2105673;28;46532;-73
2021/10/05 00:36:00;;;;;;;;;;;;;;;;;;2106417;28;45229;-73
2021/10/05 00:37:02;;;;;;;;;;;;;;;;;;2106703;28;44808;-72
2021/10/05 00:38:03;;;;;;;;;;;;;;;;;;2114442;28;47063;-71
2021/10/05 00:39:05;;;;;;;;;;;;;;;;;;2106645;28;45425;-71
2021/10/05 00:40:07;;;;;;;;;;;;;;;;;;2098258;28;45261;-71
2021/10/05 00:41:08;;;;;;;;;;;;;;;;;;2106505;28;45279;-71
2021/10/05 00:42:10;;;;;;;;;;;;;;;;;;2106856;28;44021;-72
2021/10/05 00:43:11;;;;;;;;;;;;;;;;;;2106650;28;43962;-73
2021/10/05 00:44:13;;;;;;;;;;;;;;;;;;2107214;28;46367;-72
2021/10/05 00:45:14;;;;;;;;;;;;;;;;;;2106289;27;43866;-72
2021/10/05 00:46:18;;;;;;;;;;;;;;;;;;2106671;28;46104;-72
2021/10/05 00:47:22;;;;;;;;;;;;;;;;;;2107020;28;43955;-72
2021/10/05 00:48:24;;;;;;;;;;;;;;;;;;2106483;28;45406;-72
2021/10/05 00:49:25;;;;;;;;;;;;;;;;;;2106734;28;45584;-72
2021/10/05 00:50:27;;;;;;;;;;;;;;;;;;2115047;28;46582;-72
2021/10/05 00:51:29;;;;;;;;;;;;;;;;;;2115041;28;45372;-72
2021/10/05 00:52:30;;;;;;;;;;;;;;;;;;2106892;28;42633;-72
2021/10/05 00:53:33;;;;;;;;;;;;;;;;;;2106846;28;44284;-71
2021/10/05 00:54:35;;;;;;;;;;;;;;;;;;2106522;28;45751;-72
2021/10/05 00:55:37;;;;;;;;;;;;;;;;;;2114703;28;44497;-72
2021/10/05 00:56:41;;;;;;;;;;;;;;;;;;2114733;28;43072;-72
2021/10/05 00:57:43;;;;;;;;;;;;;;;;;;2106028;28;44196;-72
2021/10/05 00:58:47;;;;;;;;;;;;;;;;;;2106634;28;46928;-72
2021/10/05 00:59:49;;;;;;;;;;;;;;;;;;2099140;28;44111;-72
2021/10/05 01:00:51;;;;;;;;;;;;;;;;;;2098550;28;44244;-72
2021/10/05 01:01:53;;;;;;;;;;;;;;;;;;2106558;28;45061;-72
2021/10/05 01:02:55;;;;;;;;;;;;;;;;;;2106631;28;45406;-72
2021/10/05 01:03:58;;;;;;;;;;;;;;;;;;2107069;28;45231;-72
2021/10/05 01:05:00;;;;;;;;;;;;;;;;;;2114780;28;46560;-72
2021/10/05 01:06:02;;;;;;;;;;;;;;;;;;2106741;28;45590;-72
2021/10/05 01:07:05;;;;;;;;;;;;;;;;;;2106607;28;46650;-71
2021/10/05 01:08:06;;;;;;;;;;;;;;;;;;2097701;28;46407;-70
2021/10/05 01:09:08;;;;;;;;;;;;;;;;;;2107108;28;43107;-70
2021/10/05 01:10:14;;;;;;;;;;;;;;;;;;2107315;28;42701;-70
2021/10/05 01:11:15;;;;;;;;;;;;;;;;;;2115349;28;44560;-70
2021/10/05 01:12:17;;;;;;;;;;;;;;;;;;2115657;28;44205;-73
2021/10/05 01:13:18;;;;;;;;;;;;;;;;;;2106785;28;45724;-73
2021/10/05 01:14:20;;;;;;;;;;;;;;;;;;2107738;28;47049;-72
2021/10/05 01:15:24;;;;;;;;;;;;;;;;;;2115307;28;42955;-72
2021/10/05 01:16:29;;;;;;;;;;;;;;;;;;2106732;28;46903;-72
2021/10/05 01:17:31;;;;;;;;;;;;;;;;;;2106696;28;44574;-72
2021/10/05 01:18:32;;;;;;;;;;;;;;;;;;2106657;28;47360;-72
2021/10/05 01:19:33;;;;;;;;;;;;;;;;;;2107042;28;46915;-73
2021/10/05 01:20:51;;;;;;;;;;;;;;;;;;2108096;28;45674;-72
2021/10/05 01:21:52;;;;;;;;;;;;;;;;;;2106885;28;45818;-73
2021/10/05 01:22:54;;;;;;;;;;;;;;;;;;2098797;28;46963;-70
2021/10/05 01:24:03;;;;;;;;;;;;;;;;;;2106788;28;46829;-70
2021/10/05 01:25:06;;;;;;;;;;;;;;;;;;2115068;28;45847;-70
2021/10/05 01:26:07;;;;;;;;;;;;;;;;;;2106151;28;47308;-70
2021/10/05 01:27:10;;;;;;;;;;;;;;;;;;2106399;28;45197;-70
2021/10/05 01:28:12;;;;;;;;;;;;;;;;;;2106016;28;45689;-70
2021/10/05 01:29:15;;;;;;;;;;;;;;;;;;2106172;28;45187;-70
2021/10/05 01:30:19;;;;;;;;;;;;;;;;;;2098191;28;45769;-70
2021/10/05 01:31:20;;;;;;;;;;;;;;;;;;2098529;28;47303;-70
2021/10/05 01:32:22;;;;;;;;;;;;;;;;;;2106488;28;46996;-72
2021/10/05 01:33:28;;;;;;;;;;;;;;;;;;2107258;28;43151;-72
2021/10/05 01:34:30;;;;;;;;;;;;;;;;;;2114353;28;45481;-72
2021/10/05 01:35:31;;;;;;;;;;;;;;;;;;2106378;28;45486;-72
2021/10/05 01:36:34;;;;;;;;;;;;;;;;;;2106837;28;46311;-73
2021/10/05 01:37:36;;;;;;;;;;;;;;;;;;2106135;28;42770;-72
2021/10/05 01:38:37;;;;;;;;;;;;;;;;;;2106700;28;47083;-72
2021/10/05 01:39:39;;;;;;;;;;;;;;;;;;2106740;28;47170;-73
2021/10/05 01:40:40;;;;;;;;;;;;;;;;;;2107288;28;46461;-72
2021/10/05 01:41:41;;;;;;;;;;;;;;;;;;2107227;28;46377;-72
2021/10/05 01:42:43;;;;;;;;;;;;;;;;;;2107637;28;46397;-72
2021/10/05 01:43:44;;;;;;;;;;;;;;;;;;2106743;28;43908;-72
2021/10/05 01:44:46;;;;;;;;;;;;;;;;;;2098931;28;44805;-73
2021/10/05 01:45:49;;;;;;;;;;;;;;;;;;2115642;28;43490;-73
2021/10/05 01:46:51;;;;;;;;;;;;;;;;;;2115430;28;45300;-73
2021/10/05 01:47:52;;;;;;;;;;;;;;;;;;2106820;28;42417;-73
2021/10/05 01:48:54;;;;;;;;;;;;;;;;;;2106985;28;45406;-73
2021/10/05 01:49:55;;;;;;;;;;;;;;;;;;2115215;28;42969;-73
2021/10/05 01:50:57;;;;;;;;;;;;;;;;;;2107545;28;43997;-73
2021/10/05 01:51:58;;;;;;;;;;;;;;;;;;2106935;28;45194;-73
2021/10/05 01:53:00;;;;;;;;;;;;;;;;;;2115738;28;45070;-73
2021/10/05 01:54:01;;;;;;;;;;;;;;;;;;2115518;28;45049;-74
2021/10/05 01:55:04;;;;;;;;;;;;;;;;;;2116814;27;42038;-72
2021/10/05 01:56:06;;;;;;;;;;;;;;;;;;2115270;28;44327;-73
2021/10/05 01:57:07;;;;;;;;;;;;;;;;;;2115857;28;44398;-74
2021/10/05 01:58:09;;;;;;;;;;;;;;;;;;2114813;28;46596;-73
2021/10/05 01:59:10;;;;;;;;;;;;;;;;;;2115386;28;45633;-73
2021/10/05 02:00:12;;;;;;;;;;;;;;;;;;2115758;27;46525;-74
2021/10/05 02:01:13;;;;;;;;;;;;;;;;;;2107165;28;44948;-74
2021/10/05 02:02:15;;;;;;;;;;;;;;;;;;2106472;28;45121;-74
2021/10/05 02:03:19;;;;;;;;;;;;;;;;;;2115293;28;44103;-72
2021/10/05 02:04:20;;;;;;;;;;;;;;;;;;2106580;28;46983;-73
2021/10/05 02:05:22;;;;;;;;;;;;;;;;;;2098218;28;46657;-72
2021/10/05 02:06:24;;;;;;;;;;;;;;;;;;2098350;28;45690;-73
2021/10/05 02:07:25;;;;;;;;;;;;;;;;;;2098830;28;43923;-73
2021/10/05 02:08:27;;;;;;;;;;;;;;;;;;2098176;28;46773;-73
2021/10/05 02:09:28;;;;;;;;;;;;;;;;;;2106351;28;45586;-73
2021/10/05 02:10:29;;;;;;;;;;;;;;;;;;2114874;28;45416;-72
2021/10/05 02:11:31;;;;;;;;;;;;;;;;;;2114732;28;45368;-72
2021/10/05 02:12:32;;;;;;;;;;;;;;;;;;2106141;28;45392;-72
2021/10/05 02:13:35;;;;;;;;;;;;;;;;;;2106815;28;45723;-74
2021/10/05 02:14:36;;;;;;;;;;;;;;;;;;2106552;28;45666;-74
2021/10/05 02:15:38;;;;;;;;;;;;;;;;;;2102411;28;45562;-76
2021/10/05 02:16:39;;;;;;;;;;;;;;;;;;2108200;28;42908;-75
2021/10/05 02:17:41;;;;;;;;;;;;;;;;;;2116166;28;46144;-74
2021/10/05 02:18:46;;;;;;;;;;;;;;;;;;2116390;28;45150;-74
2021/10/05 02:19:47;;;;;;;;;;;;;;;;;;2116484;27;44892;-74
2021/10/05 02:20:49;;;;;;;;;;;;;;;;;;2115341;28;46050;-73
2021/10/05 02:21:50;;;;;;;;;;;;;;;;;;2107119;28;45860;-73
2021/10/05 02:22:52;;;;;;;;;;;;;;;;;;2115277;28;45915;-74
2021/10/05 02:25:14;;;;;;;;;;;;;;;;;;2109730;28;45869;-74
2021/10/05 02:26:15;;;;;;;;;;;;;;;;;;2115712;28;44268;-74
2021/10/05 02:27:18;;;;;;;;;;;;;;;;;;2116153;28;43281;-74
2021/10/05 02:28:19;;;;;;;;;;;;;;;;;;2106225;28;47165;-73
2021/10/05 02:29:21;;;;;;;;;;;;;;;;;;2115229;28;45879;-73
2021/10/05 02:30:23;;;;;;;;;;;;;;;;;;2106854;28;47161;-73
2021/10/05 02:31:25;;;;;;;;;;;;;;;;;;2106679;28;45895;-73
2021/10/05 02:32:26;;;;;;;;;;;;;;;;;;2115233;28;46218;-73
2021/10/05 02:33:28;;;;;;;;;;;;;;;;;;2114919;28;46942;-73
2021/10/05 02:34:30;;;;;;;;;;;;;;;;;;2106830;28;43715;-74
2021/10/05 02:35:31;;;;;;;;;;;;;;;;;;2114439;28;44496;-73
2021/10/05 02:36:33;;;;;;;;;;;;;;;;;;2114724;28;45899;-73
2021/10/05 02:37:35;;;;;;;;;;;;;;;;;;2114185;27;45916;-73
2021/10/05 02:38:36;;;;;;;;;;;;;;;;;;2106340;28;44330;-74
2021/10/05 02:39:37;;;;;;;;;;;;;;;;;;2107292;28;47188;-72
2021/10/05 02:40:39;;;;;;;;;;;;;;;;;;2114825;28;46152;-73
2021/10/05 02:41:40;;;;;;;;;;;;;;;;;;2098570;28;45207;-73
2021/10/05 02:42:42;;;;;;;;;;;;;;;;;;2098674;28;46421;-72
2021/10/05 02:43:43;;;;;;;;;;;;;;;;;;2106737;28;43923;-72
2021/10/05 02:44:45;;;;;;;;;;;;;;;;;;2115169;28;45198;-73
2021/10/05 02:45:46;;;;;;;;;;;;;;;;;;2114645;28;45277;-75
2021/10/05 02:46:48;;;;;;;;;;;;;;;;;;2107021;28;45400;-72
2021/10/05 02:47:49;;;;;;;;;;;;;;;;;;2106907;28;45324;-73
2021/10/05 02:48:50;;;;;;;;;;;;;;;;;;2107103;28;45330;-73
2021/10/05 02:49:52;;;;;;;;;;;;;;;;;;2115386;27;46552;-73
2021/10/05 02:50:54;;;;;;;;;;;;;;;;;;2115212;28;44703;-72
2021/10/05 02:51:55;;;;;;;;;;;;;;;;;;2107074;28;46292;-72
2021/10/05 02:52:57;;;;;;;;;;;;;;;;;;2115327;28;46346;-73
2021/10/05 02:53:59;;;;;;;;;;;;;;;;;;2116195;27;42849;-74
2021/10/05 02:55:00;;;;;;;;;;;;;;;;;;2115600;28;43870;-74
2021/10/05 02:56:02;;;;;;;;;;;;;;;;;;2128548;22;45606;-70
2021/10/05 02:57:04;;;;;;;;;;;;;;;;;;2113123;28;46390;-70
2021/10/05 02:58:05;;;;;;;;;;;;;;;;;;2113131;27;46222;-71
2021/10/05 02:59:07;;;;;;;;;;;;;;;;;;2114111;28;46385;-71
2021/10/05 03:00:08;;;;;;;;;;;;;;;;;;2113513;27;44661;-70
2021/10/05 03:01:10;;;;;;;;;;;;;;;;;;2114363;28;45136;-69
2021/10/05 03:02:12;;;;;;;;;;;;;;;;;;2114041;28;46720;-70
2021/10/05 03:03:14;;;;;;;;;;;;;;;;;;2114450;27;45752;-71
2021/10/05 03:04:15;;;;;;;;;;;;;;;;;;2113959;28;45283;-71
2021/10/05 03:05:16;;;;;;;;;;;;;;;;;;2114092;27;46552;-71
2021/10/05 03:06:18;;;;;;;;;;;;;;;;;;2122636;27;43797;-71
2021/10/05 03:07:19;;;;;;;;;;;;;;;;;;2114664;28;46627;-71
2021/10/05 03:08:22;;;;;;;;;;;;;;;;;;2113552;28;46492;-72
2021/10/05 03:09:24;;;;;;;;;;;;;;;;;;2114519;27;45432;-71
2021/10/05 03:10:25;;;;;;;;;;;;;;;;;;2122466;27;46408;-71
2021/10/05 03:11:27;;;;;;;;;;;;;;;;;;2114142;28;44523;-71
2021/10/05 03:12:28;;;;;;;;;;;;;;;;;;2114146;27;46500;-71
2021/10/05 03:13:33;;;;;;;;;;;;;;;;;;2106276;27;45289;-70
2021/10/05 03:14:35;;;;;;;;;;;;;;;;;;2097511;28;45705;-70
2021/10/05 03:15:36;;;;;;;;;;;;;;;;;;2105603;28;44140;-71
2021/10/05 03:16:38;;;;;;;;;;;;;;;;;;2105233;28;46613;-70
2021/10/05 03:17:39;;;;;;;;;;;;;;;;;;2097275;28;46236;-70
2021/10/05 03:18:42;;;;;;;;;;;;;;;;;;2105440;28;45741;-72
2021/10/05 03:19:43;;;;;;;;;;;;;;;;;;2097241;28;46842;-70
2021/10/05 03:20:44;;;;;;;;;;;;;;;;;;2105750;27;46609;-71
2021/10/05 03:21:46;;;;;;;;;;;;;;;;;;2114098;28;45271;-71
2021/10/05 03:22:47;;;;;;;;;;;;;;;;;;2114369;27;46978;-70
2021/10/05 03:23:49;;;;;;;;;;;;;;;;;;2114044;28;45836;-72
2021/10/05 03:24:50;;;;;;;;;;;;;;;;;;2114099;27;44874;-70
2021/10/05 03:25:52;;;;;;;;;;;;;;;;;;2113648;28;46894;-70
2021/10/05 03:26:54;;;;;;;;;;;;;;;;;;2113964;27;46127;-70
2021/10/05 03:27:55;;;;;;;;;;;;;;;;;;2113401;28;46001;-71
2021/10/05 03:28:56;;;;;;;;;;;;;;;;;;2113982;28;43721;-72
2021/10/05 03:29:58;;;;;;;;;;;;;;;;;;2114556;28;45904;-72
2021/10/05 03:30:59;;;;;;;;;;;;;;;;;;2121552;27;46275;-72
2021/10/05 03:32:01;;;;;;;;;;;;;;;;;;2122238;27;45695;-72
2021/10/05 03:33:02;;;;;;;;;;;;;;;;;;2105530;28;45891;-71
2021/10/05 03:34:04;;;;;;;;;;;;;;;;;;2113542;28;47175;-72
2021/10/05 03:35:05;;;;;;;;;;;;;;;;;;2113902;28;46043;-72
2021/10/05 03:36:07;;;;;;;;;;;;;;;;;;2113930;27;42555;-72
2021/10/05 03:37:08;;;;;;;;;;;;;;;;;;2122390;27;44768;-72
2021/10/05 03:38:10;;;;;;;;;;;;;;;;;;2112595;28;44731;-72
2021/10/05 03:39:11;;;;;;;;;;;;;;;;;;2114074;27;45766;-71
2021/10/05 03:40:13;;;;;;;;;;;;;;;;;;2122207;27;45761;-72
2021/10/05 03:41:15;;;;;;;;;;;;;;;;;;2122463;27;45884;-72
2021/10/05 03:42:16;;;;;;;;;;;;;;;;;;2122128;27;45715;-72
2021/10/05 03:43:18;;;;;;;;;;;;;;;;;;2114581;28;47170;-72
2021/10/05 03:44:19;;;;;;;;;;;;;;;;;;2113921;28;45297;-71
2021/10/05 03:45:21;;;;;;;;;;;;;;;;;;2114328;27;45672;-71
2021/10/05 03:46:22;;;;;;;;;;;;;;;;;;2113794;28;45469;-71
2021/10/05 03:47:24;;;;;;;;;;;;;;;;;;2114056;27;45427;-72
2021/10/05 03:48:25;;;;;;;;;;;;;;;;;;2113445;28;43941;-72
2021/10/05 03:49:27;;;;;;;;;;;;;;;;;;2113892;28;44031;-71
2021/10/05 03:50:28;;;;;;;;;;;;;;;;;;2122348;27;45477;-72
2021/10/05 03:51:30;;;;;;;;;;;;;;;;;;2122590;27;45025;-71
2021/10/05 03:52:31;;;;;;;;;;;;;;;;;;2113806;28;45514;-73
2021/10/05 03:53:33;;;;;;;;;;;;;;;;;;2112972;28;45226;-71
2021/10/05 03:54:35;;;;;;;;;;;;;;;;;;2113621;28;43319;-72
2021/10/05 03:55:36;;;;;;;;;;;;;;;;;;2114811;28;44992;-72
2021/10/05 03:56:38;;;;;;;;;;;;;;;;;;2113230;28;45157;-71
2021/10/05 03:57:39;;;;;;;;;;;;;;;;;;2113252;27;45152;-70
2021/10/05 03:58:41;;;;;;;;;;;;;;;;;;2121845;27;46395;-71
2021/10/05 03:59:42;;;;;;;;;;;;;;;;;;2100552;28;44735;-72
2021/10/05 04:00:44;;;;;;;;;;;;;;;;;;2105505;28;44545;-72
2021/10/05 04:01:46;;;;;;;;;;;;;;;;;;2105370;28;45587;-72
2021/10/05 04:02:48;;;;;;;;;;;;;;;;;;2097218;28;43036;-73
2021/10/05 04:03:49;;;;;;;;;;;;;;;;;;2097352;28;43578;-72
2021/10/05 04:04:51;;;;;;;;;;;;;;;;;;2105480;28;43894;-72
2021/10/05 04:05:52;;;;;;;;;;;;;;;;;;2113706;28;45249;-72
2021/10/05 04:06:53;;;;;;;;;;;;;;;;;;2114091;28;46328;-72
2021/10/05 04:07:55;;;;;;;;;;;;;;;;;;2113112;28;45619;-72
2021/10/05 04:08:56;;;;;;;;;;;;;;;;;;2105357;28;45603;-71
2021/10/05 04:09:57;;;;;;;;;;;;;;;;;;2105700;28;44399;-71
2021/10/05 04:10:59;;;;;;;;;;;;;;;;;;2115211;28;45904;-71
2021/10/05 04:12:00;;;;;;;;;;;;;;;;;;2115238;28;44104;-71
2021/10/05 04:13:02;;;;;;;;;;;;;;;;;;2114881;28;45462;-71
2021/10/05 04:14:03;;;;;;;;;;;;;;;;;;2107362;28;45448;-71
2021/10/05 04:15:05;;;;;;;;;;;;;;;;;;2107503;28;43969;-71
2021/10/05 04:16:06;;;;;;;;;;;;;;;;;;2115256;28;43859;-72
2021/10/05 04:17:08;;;;;;;;;;;;;;;;;;2115080;28;45701;-72
2021/10/05 04:18:09;;;;;;;;;;;;;;;;;;2114509;28;44058;-71
2021/10/05 04:19:11;;;;;;;;;;;;;;;;;;2115090;28;46596;-72
2021/10/05 04:20:12;;;;;;;;;;;;;;;;;;2106757;28;43941;-71
2021/10/05 04:21:14;;;;;;;;;;;;;;;;;;2115176;28;43997;-71
2021/10/05 04:22:15;;;;;;;;;;;;;;;;;;2114993;28;46538;-71
2021/10/05 04:23:16;;;;;;;;;;;;;;;;;;2115205;28;46421;-72
2021/10/05 04:24:18;;;;;;;;;;;;;;;;;;2114981;28;46107;-71
2021/10/05 04:25:19;;;;;;;;;;;;;;;;;;2114896;27;46879;-71
2021/10/05 04:26:20;;;;;;;;;;;;;;;;;;2123074;27;46743;-72
2021/10/05 04:27:22;;;;;;;;;;;;;;;;;;2123755;27;46609;-71
2021/10/05 04:28:23;;;;;;;;;;;;;;;;;;2123411;27;45596;-72
2021/10/05 04:29:24;;;;;;;;;;;;;;;;;;2115372;28;44050;-72
2021/10/05 04:30:26;;;;;;;;;;;;;;;;;;2123586;27;45844;-72
2021/10/05 04:31:28;;;;;;;;;;;;;;;;;;2115025;28;46912;-71
2021/10/05 04:32:30;;;;;;;;;;;;;;;;;;2109247;28;44699;-71
2021/10/05 04:33:31;;;;;;;;;;;;;;;;;;2114783;28;45984;-71
2021/10/05 04:34:33;;;;;;;;;;;;;;;;;;2107146;28;45883;-71
2021/10/05 04:35:34;;;;;;;;;;;;;;;;;;2115082;28;46045;-71
2021/10/05 04:36:36;;;;;;;;;;;;;;;;;;2114927;28;43274;-70
2021/10/05 04:37:37;;;;;;;;;;;;;;;;;;2114521;28;47195;-70
2021/10/05 04:38:38;;;;;;;;;;;;;;;;;;2114837;28;46076;-71
2021/10/05 04:39:40;;;;;;;;;;;;;;;;;;2106663;28;46910;-71
2021/10/05 04:40:41;;;;;;;;;;;;;;;;;;2114600;28;46882;-71
2021/10/05 04:41:43;;;;;;;;;;;;;;;;;;2114967;28;45890;-71
2021/10/05 04:42:44;;;;;;;;;;;;;;;;;;2114914;28;46162;-71
2021/10/05 04:43:45;;;;;;;;;;;;;;;;;;2115016;28;47227;-70
2021/10/05 04:44:47;;;;;;;;;;;;;;;;;;2106989;28;44907;-70
2021/10/05 04:45:48;;;;;;;;;;;;;;;;;;2107106;28;45789;-72
2021/10/05 04:46:50;;;;;;;;;;;;;;;;;;2114801;28;47169;-70
2021/10/05 04:47:51;;;;;;;;;;;;;;;;;;2114155;28;48055;-71
2021/10/05 04:48:53;;;;;;;;;;;;;;;;;;2106436;28;47328;-72
2021/10/05 04:49:54;;;;;;;;;;;;;;;;;;2106723;28;46096;-71
2021/10/05 04:50:56;;;;;;;;;;;;;;;;;;2115285;28;46119;-71
2021/10/05 04:51:57;;;;;;;;;;;;;;;;;;2114855;28;45325;-71
2021/10/05 04:52:59;;;;;;;;;;;;;;;;;;2106458;28;45284;-72
2021/10/05 04:54:00;;;;;;;;;;;;;;;;;;2106540;28;46466;-72
2021/10/05 04:55:02;;;;;;;;;;;;;;;;;;2114386;28;46492;-71
2021/10/05 04:56:04;;;;;;;;;;;;;;;;;;2114337;28;45391;-71
2021/10/05 04:57:05;;;;;;;;;;;;;;;;;;2114722;28;45300;-71
2021/10/05 04:58:07;;;;;;;;;;;;;;;;;;2113860;27;45430;-71
2021/10/05 04:59:08;;;;;;;;;;;;;;;;;;2114490;28;46653;-71
2021/10/05 05:00:10;;;;;;;;;;;;;;;;;;2106592;28;46385;-70
2021/10/05 05:01:11;;;;;;;;;;;;;;;;;;2115043;28;46464;-71
2021/10/05 05:02:13;;;;;;;;;;;;;;;;;;2114743;28;45488;-72
2021/10/05 05:03:15;;;;;;;;;;;;;;;;;;2106493;28;45517;-71
2021/10/05 05:04:16;;;;;;;;;;;;;;;;;;2106446;28;45091;-70
2021/10/05 05:05:18;;;;;;;;;;;;;;;;;;2114950;28;45297;-70
2021/10/05 05:06:19;;;;;;;;;;;;;;;;;;2114644;28;46339;-71
2021/10/05 05:07:21;;;;;;;;;;;;;;;;;;2107127;28;46366;-72
2021/10/05 05:08:23;;;;;;;;;;;;;;;;;;2114418;28;45484;-70
2021/10/05 05:09:24;;;;;;;;;;;;;;;;;;2114727;28;45445;-71
2021/10/05 05:10:26;;;;;;;;;;;;;;;;;;2107049;28;45266;-71
2021/10/05 05:11:27;;;;;;;;;;;;;;;;;;2114615;28;45391;-71
2021/10/05 05:12:29;;;;;;;;;;;;;;;;;;2114874;28;46504;-72
2021/10/05 05:13:30;;;;;;;;;;;;;;;;;;2106732;28;46468;-71
2021/10/05 05:14:32;;;;;;;;;;;;;;;;;;2106893;28;45793;-72
2021/10/05 05:15:33;;;;;;;;;;;;;;;;;;2106787;28;46639;-72
2021/10/05 05:16:35;;;;;;;;;;;;;;;;;;2114325;28;45418;-71
2021/10/05 05:17:36;;;;;;;;;;;;;;;;;;2114116;28;45387;-71
2021/10/05 05:18:37;;;;;;;;;;;;;;;;;;2106197;28;48726;-71
2021/10/05 05:19:39;;;;;;;;;;;;;;;;;;2114568;28;45188;-71
2021/10/05 05:20:40;;;;;;;;;;;;;;;;;;2114029;27;45670;-71
2021/10/05 05:21:42;;;;;;;;;;;;;;;;;;2114670;28;45725;-72
2021/10/05 05:22:45;;;;;;;;;;;;;;;;;;2114649;28;45264;-71
2021/10/05 05:23:46;;;;;;;;;;;;;;;;;;2105958;28;46879;-71
2021/10/05 05:24:48;;;;;;;;;;;;;;;;;;2106108;28;45391;-71
2021/10/05 05:25:49;;;;;;;;;;;;;;;;;;2114153;28;46886;-72
2021/10/05 05:26:50;;;;;;;;;;;;;;;;;;2114628;28;45363;-71
2021/10/05 05:27:52;;;;;;;;;;;;;;;;;;2113746;28;48163;-71
2021/10/05 05:28:54;;;;;;;;;;;;;;;;;;2107462;28;44224;-73
2021/10/05 05:29:55;;;;;;;;;;;;;;;;;;2106111;28;45329;-74
2021/10/05 05:30:57;;;;;;;;;;;;;;;;;;2106210;28;45538;-73
2021/10/05 05:31:58;;;;;;;;;;;;;;;;;;2105657;28;43194;-72
2021/10/05 05:33:00;;;;;;;;;;;;;;;;;;2114666;28;46525;-73
2021/10/05 05:34:01;;;;;;;;;;;;;;;;;;2106741;28;43055;-73
2021/10/05 05:35:03;;;;;;;;;;;;;;;;;;2106387;28;44440;-72
2021/10/05 05:36:04;;;;;;;;;;;;;;;;;;2106199;28;47238;-73
2021/10/05 05:37:06;;;;;;;;;;;;;;;;;;2106549;28;45888;-72
2021/10/05 05:38:08;;;;;;;;;;;;;;;;;;2114045;28;46057;-72
2021/10/05 05:39:09;;;;;;;;;;;;;;;;;;2106024;28;44766;-72
2021/10/05 05:40:11;;;;;;;;;;;;;;;;;;2106055;28;45842;-72
2021/10/05 05:41:12;;;;;;;;;;;;;;;;;;2106182;28;47005;-72
2021/10/05 05:42:14;;;;;;;;;;;;;;;;;;2106145;28;47055;-72
2021/10/05 05:43:15;;;;;;;;;;;;;;;;;;2106386;28;43807;-72
2021/10/05 05:44:17;;;;;;;;;;;;;;;;;;2106067;28;46519;-72
2021/10/05 05:45:18;;;;;;;;;;;;;;;;;;2106004;28;44637;-72
2021/10/05 05:46:20;;;;;;;;;;;;;;;;;;2105891;28;46060;-72
2021/10/05 05:47:21;;;;;;;;;;;;;;;;;;2106010;28;44271;-72
2021/10/05 05:48:22;;;;;;;;;;;;;;;;;;2105689;28;44688;-72
2021/10/05 05:49:24;;;;;;;;;;;;;;;;;;2106083;28;47119;-72
2021/10/05 05:50:26;;;;;;;;;;;;;;;;;;2106124;28;45930;-71
2021/10/05 05:51:27;;;;;;;;;;;;;;;;;;2105916;28;43954;-70
2021/10/05 05:52:28;;;;;;;;;;;;;;;;;;2098118;28;44483;-71
2021/10/05 05:53:30;;;;;;;;;;;;;;;;;;2105950;28;45913;-72
2021/10/05 05:54:31;;;;;;;;;;;;;;;;;;2105994;28;45917;-72
2021/10/05 05:55:33;;;;;;;;;;;;;;;;;;2106115;28;45830;-71
2021/10/05 05:56:35;;;;;;;;;;;;;;;;;;2105974;28;44629;-72
2021/10/05 05:57:36;;;;;;;;;;;;;;;;;;2105950;28;43485;-72
2021/10/05 05:58:38;;;;;;;;;;;;;;;;;;2106009;28;46957;-71
2021/10/05 05:59:39;;;;;;;;;;;;;;;;;;2097679;28;44336;-71
2021/10/05 06:00:41;;;;;;;;;;;;;;;;;;2097879;28;43309;-71
2021/10/05 06:01:42;;;;;;;;;;;;;;;;;;2105930;28;46708;-71
2021/10/05 06:02:44;;;;;;;;;;;;;;;;;;2097966;28;45622;-71
2021/10/05 06:03:48;;;;;;;;;;;;;;;;;;2105985;28;46598;-70
2021/10/05 06:04:50;;;;;;;;;;;;;;;;;;2105495;28;45245;-71
2021/10/05 06:05:51;;;;;;;;;;;;;;;;;;2105594;28;45305;-71
2021/10/05 06:06:53;;;;;;;;;;;;;;;;;;2105958;28;45170;-70
2021/10/05 06:07:54;;;;;;;;;;;;;;;;;;2097483;28;43420;-71
2021/10/05 06:08:56;;;;;;;;;;;;;;;;;;2104737;28;43822;-71
2021/10/05 06:09:58;;;;;;;;;;;;;;;;;;2114304;28;45280;-72
2021/10/05 06:10:59;;;;;;;;;;;;;;;;;;2114306;28;46383;-70
2021/10/05 06:12:03;;;;;;;;;;;;;;;;;;2114390;28;45145;-71
2021/10/05 06:13:05;;;;;;;;;;;;;;;;;;2114020;28;46274;-71
2021/10/05 06:14:07;;;;;;;;;;;;;;;;;;2105869;28;45257;-70
2021/10/05 06:15:12;;;;;;;;;;;;;;;;;;2106108;28;45335;-70
2021/10/05 06:16:14;;;;;;;;;;;;;;;;;;2113508;28;45240;-70
2021/10/05 06:17:16;;;;;;;;;;;;;;;;;;2105749;28;46342;-71
2021/10/05 06:18:18;;;;;;;;;;;;;;;;;;2105800;28;46366;-71
2021/10/05 06:19:19;;;;;;;;;;;;;;;;;;2114433;28;46548;-73
2021/10/05 06:20:22;;;;;;;;;;;;;;;;;;2114161;28;46617;-71
2021/10/05 06:21:23;;;;;;;;;;;;;;;;;;2114339;28;44061;-71
2021/10/05 06:22:25;;;;;;;;;;;;;;;;;;2114215;28;46449;-73
2021/10/05 06:23:26;;;;;;;;;;;;;;;;;;2114243;28;46717;-72
2021/10/05 06:24:28;;;;;;;;;;;;;;;;;;2105944;28;44286;-72
2021/10/05 06:25:30;;;;;;;;;;;;;;;;;;2106048;28;45433;-72
2021/10/05 06:26:31;;;;;;;;;;;;;;;;;;2114222;28;43780;-72
2021/10/05 06:27:32;;;;;;;;;;;;;;;;;;2113890;28;45291;-72
2021/10/05 06:28:34;;;;;;;;;;;;;;;;;;2114195;28;45578;-72
2021/10/05 06:29:36;;;;;;;;;;;;;;;;;;2114289;28;45392;-72
2021/10/05 06:30:38;;;;;;;;;;;;;;;;;;2105586;28;44473;-72
2021/10/05 06:31:39;;;;;;;;;;;;;;;;;;2097878;28;46797;-72
2021/10/05 06:32:41;;;;;;;;;;;;;;;;;;2104399;28;45592;-72
2021/10/05 06:33:43;;;;;;;;;;;;;;;;;;2106045;28;45420;-72
2021/10/05 06:34:44;;;;;;;;;;;;;;;;;;2114113;28;45346;-72
2021/10/05 06:35:46;;;;;;;;;;;;;;;;;;2104997;28;46950;-72
2021/10/05 06:36:47;;;;;;;;;;;;;;;;;;2105484;28;45934;-72
2021/10/05 06:37:51;;;;;;;;;;;;;;;;;;2113686;28;41002;-72
2021/10/05 06:38:52;;;;;;;;;;;;;;;;;;2113850;28;45387;-72
2021/10/05 06:39:54;;;;;;;;;;;;;;;;;;2106628;28;44800;-72
2021/10/05 06:40:58;;;;;;;;;;;;;;;;;;2114089;28;42965;-72
2021/10/05 06:41:59;;;;;;;;;;;;;;;;;;2113918;28;47165;-72
2021/10/05 06:43:01;;;;;;;;;;;;;;;;;;2114159;28;47076;-72
2021/10/05 06:44:02;;;;;;;;;;;;;;;;;;2114203;28;43362;-72
2021/10/05 06:45:05;;;;;;;;;;;;;;;;;;2105649;28;44771;-72
2021/10/05 06:46:06;;;;;;;;;;;;;;;;;;2106077;28;46950;-72
2021/10/05 06:47:08;;;;;;;;;;;;;;;;;;2114142;28;45719;-72
2021/10/05 06:48:09;;;;;;;;;;;;;;;;;;2113477;28;47046;-72
2021/10/05 06:49:11;;;;;;;;;;;;;;;;;;2114159;28;45880;-72
2021/10/05 06:50:13;;;;;;;;;;;;;;;;;;2114092;28;45712;-72
2021/10/05 06:51:15;;;;;;;;;;;;;;;;;;2105543;28;46629;-72
2021/10/05 06:52:20;;;;;;;;;;;;;;;;;;2106339;28;47371;-72
2021/10/05 06:53:21;;;;;;;;;;;;;;;;;;2113499;28;44467;-72
2021/10/05 06:54:23;;;;;;;;;;;;;;;;;;2114091;28;44754;-72
2021/10/05 06:55:24;;;;;;;;;;;;;;;;;;2113719;28;47238;-72
2021/10/05 06:56:25;;;;;;;;;;;;;;;;;;2113730;28;44736;-72
2021/10/05 06:57:27;;;;;;;;;;;;;;;;;;2113831;28;47164;-72
2021/10/05 06:58:28;;;;;;;;;;;;;;;;;;2113716;28;45708;-72
2021/10/05 06:59:30;;;;;;;;;;;;;;;;;;2114001;28;45903;-72
2021/10/05 07:00:31;;;;;;;;;;;;;;;;;;2105481;28;45793;-72
2021/10/05 07:01:32;;;;;;;;;;;;;;;;;;2113874;27;48591;-72
2021/10/05 07:02:34;;;;;;;;;;;;;;;;;;2114273;28;47294;-72